Time,TemperatureF,DewpointF,PressureIn,WindDirection,WindDirectionDegrees,WindSpeedMPH,WindSpeedGustMPH,Humidity,HourlyPrecipIn,Conditions,Clouds,dailyrainin,SoftwareType,DateUTC
2013-01-12 00:06:00,37.9,32.6,30.06,SSW,202,1.3,1.6,81,0.00,,,0.00,WeatherCatV1.12B45,2013-01-12 08:06:00,
2013-01-12 00:21:00,37.8,32.8,30.06,WSW,247,0.0,0.0,82,0.00,,,0.00,WeatherCatV1.12B45,2013-01-12 08:21:00,
2013-01-12 00:36:00,37.2,31.9,30.05,South,180,0.0,1.1,81,0.00,,,0.00,WeatherCatV1.12B45,2013-01-12 08:36:00,
2013-01-12 00:51:00,37.0,32.0,30.06,SSW,202,1.6,1.6,82,0.00,,,0.00,WeatherCatV1.12B45,2013-01-12 08:51:00,
2013-01-12 01:06:00,37.0,32.3,30.06,SSW,202,0.7,0.7,83,0.00,,,0.00,WeatherCatV1.12B45,2013-01-12 09:06:00,
2013-01-12 01:21:00,36.7,32.0,30.07,South,180,3.4,3.4,83,0.00,,,0.00,WeatherCatV1.12B45,2013-01-12 09:21:00,
2013-01-12 01:36:00,36.5,32.1,30.08,SSW,202,2.5,2.5,84,0.00,,,0.00,WeatherCatV1.12B45,2013-01-12 09:36:00,
2013-01-12 01:51:00,36.3,31.9,30.06,SSW,202,3.8,3.8,84,0.00,,,0.00,WeatherCatV1.12B45,2013-01-12 09:51:00,
2013-01-12 02:06:00,36.1,31.7,30.07,South,180,2.2,2.2,84,0.00,,,0.00,WeatherCatV1.12B45,2013-01-12 10:06:00,
2013-01-12 02:21:00,36.1,32.0,30.08,South,180,3.6,3.6,85,0.00,,,0.00,WeatherCatV1.12B45,2013-01-12 10:21:00,
2013-01-12 02:36:00,36.0,31.8,30.08,South,180,5.1,5.1,85,0.02,,,0.02,WeatherCatV1.12B45,2013-01-12 10:36:00,
2013-01-12 02:51:00,36.0,31.8,30.08,SSW,202,3.1,3.1,85,0.02,,,0.02,WeatherCatV1.12B45,2013-01-12 10:51:00,
2013-01-12 03:06:00,35.8,31.9,30.07,South,180,2.9,3.4,86,0.02,,,0.02,WeatherCatV1.12B45,2013-01-12 11:06:00,
2013-01-12 03:21:00,35.8,31.9,30.08,South,180,2.5,3.1,86,0.02,,,0.02,WeatherCatV1.12B45,2013-01-12 11:21:00,
2013-01-12 03:36:00,35.4,31.6,30.08,SSW,202,2.0,2.2,86,0.00,,,0.02,WeatherCatV1.12B45,2013-01-12 11:36:00,
2013-01-12 03:51:00,35.4,31.6,30.08,South,180,2.2,2.2,86,0.00,,,0.02,WeatherCatV1.12B45,2013-01-12 11:51:00,
2013-01-12 04:06:00,34.9,31.0,30.08,South,180,1.1,2.5,86,0.00,,,0.02,WeatherCatV1.12B45,2013-01-12 12:06:00,
2013-01-12 04:21:00,34.7,30.8,30.08,South,180,1.6,2.2,86,0.00,,,0.02,WeatherCatV1.12B45,2013-01-12 12:21:00,
2013-01-12 04:36:00,34.3,30.5,30.09,WSW,247,0.0,0.0,86,0.00,,,0.02,WeatherCatV1.12B45,2013-01-12 12:36:00,
2013-01-12 04:51:00,33.8,29.9,30.10,South,180,1.1,1.3,86,0.00,,,0.02,WeatherCatV1.12B45,2013-01-12 12:51:00,
2013-01-12 05:06:00,33.3,29.5,30.10,South,180,1.6,2.0,86,0.00,,,0.02,WeatherCatV1.12B45,2013-01-12 13:06:00,
2013-01-12 05:21:00,32.7,29.0,30.10,South,180,3.1,3.1,86,0.00,,,0.02,WeatherCatV1.12B45,2013-01-12 13:21:00,
2013-01-12 05:36:00,32.9,29.4,30.11,South,180,0.0,0.0,87,0.00,,,0.02,WeatherCatV1.12B45,2013-01-12 13:36:00,
2013-01-12 05:51:00,32.7,29.3,30.12,NNW,337,0.0,0.0,87,0.00,,,0.02,WeatherCatV1.12B45,2013-01-12 13:51:00,
2013-01-12 06:06:00,32.5,29.1,30.12,SSW,202,0.0,0.0,87,0.00,,,0.02,WeatherCatV1.12B45,2013-01-12 14:06:00,
2013-01-12 06:21:00,32.7,29.3,30.12,WSW,247,0.9,0.9,87,0.00,,,0.02,WeatherCatV1.12B45,2013-01-12 14:21:00,
2013-01-12 06:36:00,33.1,29.6,30.13,SSW,202,0.0,1.3,87,0.00,,,0.02,WeatherCatV1.12B45,2013-01-12 14:36:00,
2013-01-12 06:51:00,33.4,29.9,30.13,West,270,0.0,0.0,87,0.00,,,0.02,WeatherCatV1.12B45,2013-01-12 14:51:00,
2013-01-12 07:06:00,33.6,30.1,30.14,WNW,292,0.0,0.0,87,0.00,,,0.02,WeatherCatV1.12B45,2013-01-12 15:06:00,
2013-01-12 07:21:00,33.6,30.1,30.14,NW,315,0.0,0.0,87,0.00,,,0.02,WeatherCatV1.12B45,2013-01-12 15:21:00,
2013-01-12 07:36:00,34.0,30.4,30.16,SSW,202,0.9,0.9,87,0.00,,,0.02,WeatherCatV1.12B45,2013-01-12 15:36:00,
2013-01-12 07:51:00,34.2,30.6,30.16,South,180,0.0,0.0,87,0.00,,,0.02,WeatherCatV1.12B45,2013-01-12 15:51:00,
2013-01-12 08:06:00,34.5,31.0,30.17,NNW,337,0.0,0.0,87,0.00,,,0.02,WeatherCatV1.12B45,2013-01-12 16:06:00,
2013-01-12 08:21:00,34.9,31.3,30.17,North,0,0.0,0.9,87,0.00,,,0.02,WeatherCatV1.12B45,2013-01-12 16:21:00,
2013-01-12 08:36:00,35.4,31.9,30.18,NNE,22,2.2,2.2,87,0.00,,,0.02,WeatherCatV1.12B45,2013-01-12 16:36:00,
2013-01-12 08:51:00,36.0,32.4,30.17,ENE,67,0.0,0.0,87,0.00,,,0.02,WeatherCatV1.12B45,2013-01-12 16:51:00,
2013-01-12 09:06:00,36.7,33.4,30.18,SSW,202,0.0,0.0,88,0.00,,,0.02,WeatherCatV1.12B45,2013-01-12 17:06:00,
2013-01-12 09:21:00,37.2,33.9,30.18,South,180,2.9,2.9,88,0.00,,,0.02,WeatherCatV1.12B45,2013-01-12 17:21:00,
2013-01-12 09:36:00,37.8,34.5,30.17,South,180,0.0,1.1,88,0.00,,,0.02,WeatherCatV1.12B45,2013-01-12 17:36:00,
2013-01-12 09:51:00,38.5,35.6,30.17,SE,135,0.0,0.0,88,0.00,,,0.02,WeatherCatV1.12B45,2013-01-12 17:51:00,
2013-01-12 10:06:00,40.8,37.9,30.17,NW,315,0.0,0.7,88,0.00,,,0.02,WeatherCatV1.12B45,2013-01-12 18:06:00,
2013-01-12 10:21:00,43.3,40.0,30.16,South,180,0.7,4.5,88,0.00,,,0.02,WeatherCatV1.12B45,2013-01-12 18:21:00,
2013-01-12 10:36:00,44.4,40.8,30.16,South,180,1.1,1.1,87,0.00,,,0.02,WeatherCatV1.12B45,2013-01-12 18:36:00,
2013-01-12 10:51:00,45.1,40.9,30.16,ENE,67,0.0,0.0,85,0.00,,,0.02,WeatherCatV1.12B45,2013-01-12 18:51:00,
2013-01-12 11:06:00,46.6,42.0,30.15,SE,135,0.0,0.0,84,0.00,,,0.02,WeatherCatV1.12B45,2013-01-12 19:06:00,
2013-01-12 11:21:00,48.9,43.9,30.13,SSE,157,2.0,2.0,83,0.00,,,0.02,WeatherCatV1.12B45,2013-01-12 19:21:00,
2013-01-12 11:36:00,50.7,44.8,30.09,ESE,112,0.0,0.7,80,0.00,,,0.02,WeatherCatV1.12B45,2013-01-12 19:36:00,
2013-01-12 11:51:00,53.2,46.2,30.06,WNW,292,0.0,1.8,77,0.00,,,0.02,WeatherCatV1.12B45,2013-01-12 19:51:00,
2013-01-12 12:06:00,53.4,44.2,30.06,SSE,157,4.0,4.0,71,0.00,,,0.02,WeatherCatV1.12B45,2013-01-12 20:06:00,
2013-01-12 12:21:00,54.1,43.8,30.06,WSW,247,1.6,8.1,68,0.00,,,0.02,WeatherCatV1.12B45,2013-01-12 20:21:00,
2013-01-12 12:36:00,55.2,43.6,30.05,SSW,202,1.6,1.6,65,0.00,,,0.02,WeatherCatV1.12B45,2013-01-12 20:36:00,
2013-01-12 12:51:00,55.2,41.6,30.05,SSW,202,4.0,4.0,60,0.00,,,0.02,WeatherCatV1.12B45,2013-01-12 20:51:00,
2013-01-12 13:06:00,56.1,42.0,30.04,SSW,202,2.5,2.5,59,0.00,,,0.02,WeatherCatV1.12B45,2013-01-12 21:06:00,
2013-01-12 13:21:00,56.8,41.8,30.04,West,270,2.9,6.5,57,0.00,,,0.02,WeatherCatV1.12B45,2013-01-12 21:21:00,
2013-01-12 13:36:00,55.6,38.2,30.05,West,270,0.9,0.9,52,0.00,,,0.02,WeatherCatV1.12B45,2013-01-12 21:36:00,
2013-01-12 13:51:00,55.2,38.3,30.04,ENE,67,0.0,0.9,53,0.00,,,0.02,WeatherCatV1.12B45,2013-01-12 21:51:00,
2013-01-12 14:06:00,55.2,37.3,30.03,WSW,247,3.1,3.6,51,0.00,,,0.02,WeatherCatV1.12B45,2013-01-12 22:06:00,
2013-01-12 14:21:00,54.5,36.7,30.03,WSW,247,3.1,4.2,51,0.00,,,0.02,WeatherCatV1.12B45,2013-01-12 22:21:00,
2013-01-12 14:36:00,55.4,37.0,30.03,West,270,5.4,5.4,50,0.00,,,0.02,WeatherCatV1.12B45,2013-01-12 22:36:00,
2013-01-12 14:51:00,55.9,37.0,30.03,WNW,292,0.0,2.7,49,0.00,,,0.02,WeatherCatV1.12B45,2013-01-12 22:51:00,
2013-01-12 15:06:00,56.7,37.7,30.02,NE,45,0.9,1.8,49,0.00,,,0.02,WeatherCatV1.12B45,2013-01-12 23:06:00,
2013-01-12 15:21:00,57.4,37.3,30.02,SSW,202,0.0,4.7,47,0.00,,,0.02,WeatherCatV1.12B45,2013-01-12 23:21:00,
2013-01-12 15:36:00,57.0,35.8,30.02,North,0,0.0,1.6,45,0.00,,,0.02,WeatherCatV1.12B45,2013-01-12 23:36:00,
2013-01-12 15:51:00,56.8,35.0,30.01,North,0,0.9,2.2,44,0.00,,,0.02,WeatherCatV1.12B45,2013-01-12 23:51:00,
2013-01-12 16:06:00,56.8,35.6,30.02,SE,135,0.0,0.0,45,0.00,,,0.02,WeatherCatV1.12B45,2013-01-13 00:06:00,
2013-01-12 16:21:00,56.7,34.9,30.02,South,180,0.0,0.0,44,0.00,,,0.02,WeatherCatV1.12B45,2013-01-13 00:21:00,
2013-01-12 16:36:00,55.6,34.4,30.03,South,180,0.0,1.8,45,0.00,,,0.02,WeatherCatV1.12B45,2013-01-13 00:36:00,
2013-01-12 16:51:00,52.3,32.1,30.03,SSW,202,0.7,0.7,46,0.00,,,0.02,WeatherCatV1.12B45,2013-01-13 00:51:00,
2013-01-12 17:06:00,48.7,29.8,30.04,WNW,292,0.0,0.0,48,0.00,,,0.02,WeatherCatV1.12B45,2013-01-13 01:06:00,
2013-01-12 17:21:00,45.5,27.4,30.04,SSW,202,0.7,3.1,49,0.00,,,0.02,WeatherCatV1.12B45,2013-01-13 01:21:00,
2013-01-12 17:36:00,42.4,25.6,30.04,West,270,0.0,2.5,51,0.00,,,0.02,WeatherCatV1.12B45,2013-01-13 01:36:00,
2013-01-12 17:51:00,40.3,24.8,30.05,SSE,157,0.0,0.0,54,0.00,,,0.02,WeatherCatV1.12B45,2013-01-13 01:51:00,
2013-01-12 18:06:00,38.8,23.9,30.06,SSW,202,0.0,0.0,55,0.00,,,0.02,WeatherCatV1.12B45,2013-01-13 02:06:00,
2013-01-12 18:21:00,37.8,23.8,30.05,South,180,0.0,0.0,57,0.00,,,0.02,WeatherCatV1.12B45,2013-01-13 02:21:00,
2013-01-12 18:36:00,36.7,23.3,30.05,North,0,0.0,0.0,58,0.00,,,0.02,WeatherCatV1.12B45,2013-01-13 02:36:00,
2013-01-12 18:51:00,36.1,23.7,30.06,ESE,112,0.0,2.0,60,0.00,,,0.02,WeatherCatV1.12B45,2013-01-13 02:51:00,
2013-01-12 19:06:00,35.8,23.7,30.06,South,180,0.0,0.0,61,0.00,,,0.02,WeatherCatV1.12B45,2013-01-13 03:06:00,
2013-01-12 19:21:00,35.2,23.5,30.05,SSW,202,0.0,0.0,62,0.00,,,0.02,WeatherCatV1.12B45,2013-01-13 03:21:00,
2013-01-12 19:36:00,34.7,23.4,30.06,SSE,157,0.0,0.0,63,0.00,,,0.02,WeatherCatV1.12B45,2013-01-13 03:36:00,
2013-01-12 19:51:00,34.3,23.4,30.06,WNW,292,0.0,0.0,64,0.00,,,0.02,WeatherCatV1.12B45,2013-01-13 03:51:00,
2013-01-12 20:06:00,34.0,23.7,30.06,South,180,0.0,0.9,66,0.00,,,0.02,WeatherCatV1.12B45,2013-01-13 04:06:00,
2013-01-12 20:21:00,33.6,23.4,30.06,South,180,0.0,0.0,66,0.00,,,0.02,WeatherCatV1.12B45,2013-01-13 04:21:00,
2013-01-12 20:36:00,33.6,23.7,30.06,SSE,157,0.0,0.0,67,0.00,,,0.02,WeatherCatV1.12B45,2013-01-13 04:36:00,
2013-01-12 20:51:00,33.6,23.7,30.07,NNW,337,0.0,0.0,67,0.00,,,0.02,WeatherCatV1.12B45,2013-01-13 04:51:00,
2013-01-12 21:06:00,33.6,24.1,30.08,SSE,157,0.0,0.0,68,0.00,,,0.02,WeatherCatV1.12B45,2013-01-13 05:06:00,
2013-01-12 21:21:00,34.0,24.8,30.07,South,180,0.0,1.1,69,0.00,,,0.02,WeatherCatV1.12B45,2013-01-13 05:21:00,
2013-01-12 21:36:00,34.5,25.3,30.06,WSW,247,0.0,0.0,69,0.00,,,0.02,WeatherCatV1.12B45,2013-01-13 05:36:00,
2013-01-12 21:51:00,34.9,25.7,30.05,South,180,0.0,0.0,69,0.00,,,0.02,WeatherCatV1.12B45,2013-01-13 05:51:00,
2013-01-12 22:06:00,35.2,26.1,30.06,SE,135,0.0,0.0,69,0.00,,,0.02,WeatherCatV1.12B45,2013-01-13 06:06:00,
2013-01-12 22:21:00,35.4,26.6,30.08,SSW,202,0.0,0.0,70,0.00,,,0.02,WeatherCatV1.12B45,2013-01-13 06:21:00,
2013-01-12 22:36:00,35.6,26.8,30.08,SSW,202,1.6,1.6,70,0.00,,,0.02,WeatherCatV1.12B45,2013-01-13 06:36:00,
2013-01-12 22:51:00,35.4,26.6,30.07,South,180,0.7,1.8,70,0.00,,,0.02,WeatherCatV1.12B45,2013-01-13 06:51:00,
2013-01-12 23:06:00,35.1,26.2,30.08,NNW,337,0.0,0.0,70,0.00,,,0.02,WeatherCatV1.12B45,2013-01-13 07:06:00,
2013-01-12 23:21:00,34.7,25.9,30.09,South,180,0.0,1.6,70,0.00,,,0.02,WeatherCatV1.12B45,2013-01-13 07:21:00,
2013-01-12 23:36:00,34.3,25.8,30.09,South,180,2.9,2.9,71,0.00,,,0.02,WeatherCatV1.12B45,2013-01-13 07:36:00,
2013-01-12 23:51:00,33.6,25.1,30.10,South,180,3.1,3.1,71,0.00,,,0.02,WeatherCatV1.12B45,2013-01-13 07:51:00,